sensor_id;sensor_type;location;lat;lon;timestamp;P1;durP1;ratioP1;P2;durP2;ratioP2
35917;SDS011;22011;59.912;30.300;2023-05-29T00:01:47;2.83;;;1.17;;
35917;SDS011;22011;59.912;30.300;2023-05-29T00:04:15;5.10;;;1.90;;
35917;SDS011;22011;59.912;30.300;2023-05-29T00:06:42;3.15;;;1.30;;
35917;SDS011;22011;59.912;30.300;2023-05-29T00:09:10;5.90;;;1.98;;
35917;SDS011;22011;59.912;30.300;2023-05-29T00:11:37;4.35;;;1.73;;
35917;SDS011;22011;59.912;30.300;2023-05-29T00:14:04;8.40;;;1.80;;
35917;SDS011;22011;59.912;30.300;2023-05-29T00:16:32;7.45;;;2.00;;
35917;SDS011;22011;59.912;30.300;2023-05-29T00:19:01;4.07;;;1.92;;
35917;SDS011;22011;59.912;30.300;2023-05-29T00:21:29;5.97;;;1.60;;
35917;SDS011;22011;59.912;30.300;2023-05-29T00:23:56;5.82;;;1.60;;
35917;SDS011;22011;59.912;30.300;2023-05-29T00:26:23;5.82;;;1.90;;
35917;SDS011;22011;59.912;30.300;2023-05-29T00:28:54;8.88;;;1.90;;
35917;SDS011;22011;59.912;30.300;2023-05-29T00:31:21;5.43;;;2.15;;
35917;SDS011;22011;59.912;30.300;2023-05-29T00:33:50;5.32;;;1.80;;
35917;SDS011;22011;59.912;30.300;2023-05-29T00:36:19;3.70;;;1.65;;
35917;SDS011;22011;59.912;30.300;2023-05-29T00:38:47;7.47;;;1.55;;
35917;SDS011;22011;59.912;30.300;2023-05-29T00:41:15;2.63;;;1.73;;
35917;SDS011;22011;59.912;30.300;2023-05-29T00:43:42;7.88;;;1.85;;
35917;SDS011;22011;59.912;30.300;2023-05-29T00:46:10;7.50;;;1.90;;
35917;SDS011;22011;59.912;30.300;2023-05-29T00:51:08;3.92;;;1.40;;
35917;SDS011;22011;59.912;30.300;2023-05-29T00:53:39;3.90;;;1.33;;
35917;SDS011;22011;59.912;30.300;2023-05-29T00:56:09;7.25;;;1.88;;
35917;SDS011;22011;59.912;30.300;2023-05-29T00:58:38;4.10;;;1.50;;
35917;SDS011;22011;59.912;30.300;2023-05-29T01:01:05;5.28;;;1.88;;
35917;SDS011;22011;59.912;30.300;2023-05-29T01:03:33;9.02;;;2.47;;
35917;SDS011;22011;59.912;30.300;2023-05-29T01:06:01;4.07;;;1.88;;
35917;SDS011;22011;59.912;30.300;2023-05-29T01:08:29;8.35;;;2.03;;
35917;SDS011;22011;59.912;30.300;2023-05-29T01:11:00;3.90;;;1.92;;
35917;SDS011;22011;59.912;30.300;2023-05-29T01:13:32;5.60;;;2.13;;
35917;SDS011;22011;59.912;30.300;2023-05-29T01:16:03;4.72;;;2.00;;
35917;SDS011;22011;59.912;30.300;2023-05-29T01:18:41;6.15;;;1.80;;
35917;SDS011;22011;59.912;30.300;2023-05-29T01:21:18;4.25;;;1.77;;
35917;SDS011;22011;59.912;30.300;2023-05-29T01:24:13;3.22;;;1.80;;
35917;SDS011;22011;59.912;30.300;2023-05-29T01:34:14;4.13;;;1.92;;
35917;SDS011;22011;59.912;30.300;2023-05-29T01:36:43;7.10;;;2.20;;
35917;SDS011;22011;59.912;30.300;2023-05-29T01:39:12;6.50;;;1.95;;
35917;SDS011;22011;59.912;30.300;2023-05-29T01:41:40;4.15;;;2.28;;
35917;SDS011;22011;59.912;30.300;2023-05-29T01:44:08;6.82;;;2.15;;
35917;SDS011;22011;59.912;30.300;2023-05-29T01:46:38;6.30;;;1.92;;
35917;SDS011;22011;59.912;30.300;2023-05-29T01:49:07;7.85;;;2.22;;
35917;SDS011;22011;59.912;30.300;2023-05-29T01:51:37;4.43;;;1.90;;
35917;SDS011;22011;59.912;30.300;2023-05-29T01:54:05;3.53;;;1.75;;
35917;SDS011;22011;59.912;30.300;2023-05-29T01:56:32;6.78;;;2.88;;
35917;SDS011;22011;59.912;30.300;2023-05-29T01:59:01;7.60;;;2.28;;
35917;SDS011;22011;59.912;30.300;2023-05-29T02:01:30;4.00;;;2.50;;
35917;SDS011;22011;59.912;30.300;2023-05-29T02:03:58;3.42;;;1.90;;
35917;SDS011;22011;59.912;30.300;2023-05-29T02:06:26;11.98;;;2.08;;
35917;SDS011;22011;59.912;30.300;2023-05-29T02:08:54;3.42;;;1.70;;
35917;SDS011;22011;59.912;30.300;2023-05-29T02:11:22;11.50;;;1.88;;
35917;SDS011;22011;59.912;30.300;2023-05-29T02:13:49;4.63;;;1.67;;
35917;SDS011;22011;59.912;30.300;2023-05-29T02:16:17;3.45;;;1.85;;
35917;SDS011;22011;59.912;30.300;2023-05-29T02:18:46;2.10;;;1.48;;
35917;SDS011;22011;59.912;30.300;2023-05-29T02:21:13;6.05;;;1.55;;
35917;SDS011;22011;59.912;30.300;2023-05-29T02:23:42;6.60;;;1.77;;
35917;SDS011;22011;59.912;30.300;2023-05-29T02:26:12;7.05;;;1.70;;
35917;SDS011;22011;59.912;30.300;2023-05-29T02:31:07;2.85;;;1.42;;
35917;SDS011;22011;59.912;30.300;2023-05-29T02:33:36;2.00;;;1.40;;
35917;SDS011;22011;59.912;30.300;2023-05-29T02:36:03;5.28;;;1.77;;
35917;SDS011;22011;59.912;30.300;2023-05-29T02:38:37;8.95;;;2.00;;
35917;SDS011;22011;59.912;30.300;2023-05-29T02:41:06;2.65;;;1.90;;
35917;SDS011;22011;59.912;30.300;2023-05-29T02:43:35;4.85;;;2.08;;
35917;SDS011;22011;59.912;30.300;2023-05-29T02:46:02;6.78;;;1.70;;
35917;SDS011;22011;59.912;30.300;2023-05-29T02:48:30;3.92;;;1.73;;
35917;SDS011;22011;59.912;30.300;2023-05-29T02:50:57;7.38;;;2.03;;
35917;SDS011;22011;59.912;30.300;2023-05-29T02:53:25;8.27;;;2.00;;
35917;SDS011;22011;59.912;30.300;2023-05-29T02:55:52;7.82;;;2.10;;
35917;SDS011;22011;59.912;30.300;2023-05-29T02:58:21;8.75;;;2.10;;
35917;SDS011;22011;59.912;30.300;2023-05-29T03:00:50;6.50;;;2.35;;
35917;SDS011;22011;59.912;30.300;2023-05-29T03:03:19;8.18;;;2.67;;
35917;SDS011;22011;59.912;30.300;2023-05-29T03:05:46;6.50;;;2.47;;
35917;SDS011;22011;59.912;30.300;2023-05-29T03:08:13;7.70;;;1.85;;
35917;SDS011;22011;59.912;30.300;2023-05-29T03:10:43;5.93;;;2.40;;
35917;SDS011;22011;59.912;30.300;2023-05-29T03:13:10;6.75;;;2.72;;
35917;SDS011;22011;59.912;30.300;2023-05-29T03:15:44;5.53;;;2.72;;
35917;SDS011;22011;59.912;30.300;2023-05-29T03:18:14;5.60;;;2.35;;
35917;SDS011;22011;59.912;30.300;2023-05-29T03:20:41;6.57;;;2.78;;
35917;SDS011;22011;59.912;30.300;2023-05-29T03:23:09;11.43;;;3.15;;
35917;SDS011;22011;59.912;30.300;2023-05-29T03:25:37;6.80;;;2.42;;
35917;SDS011;22011;59.912;30.300;2023-05-29T03:28:04;6.85;;;2.53;;
35917;SDS011;22011;59.912;30.300;2023-05-29T03:30:32;5.93;;;2.42;;
35917;SDS011;22011;59.912;30.300;2023-05-29T03:32:59;6.80;;;2.53;;
35917;SDS011;22011;59.912;30.300;2023-05-29T03:35:47;3.83;;;2.40;;
35917;SDS011;22011;59.912;30.300;2023-05-29T03:38:14;8.90;;;2.85;;
35917;SDS011;22011;59.912;30.300;2023-05-29T03:40:42;9.00;;;2.65;;
35917;SDS011;22011;59.912;30.300;2023-05-29T03:43:09;7.15;;;2.85;;
35917;SDS011;22011;59.912;30.300;2023-05-29T03:45:36;10.40;;;3.25;;
35917;SDS011;22011;59.912;30.300;2023-05-29T03:48:04;10.05;;;2.70;;
35917;SDS011;22011;59.912;30.300;2023-05-29T03:50:32;7.63;;;2.25;;
35917;SDS011;22011;59.912;30.300;2023-05-29T03:53:01;9.88;;;2.67;;
35917;SDS011;22011;59.912;30.300;2023-05-29T03:55:28;8.27;;;3.33;;
35917;SDS011;22011;59.912;30.300;2023-05-29T03:57:56;5.30;;;2.67;;
35917;SDS011;22011;59.912;30.300;2023-05-29T04:00:23;12.00;;;2.90;;
35917;SDS011;22011;59.912;30.300;2023-05-29T04:02:52;7.28;;;2.63;;
35917;SDS011;22011;59.912;30.300;2023-05-29T04:05:19;8.55;;;2.90;;
35917;SDS011;22011;59.912;30.300;2023-05-29T04:07:47;11.60;;;2.88;;
35917;SDS011;22011;59.912;30.300;2023-05-29T04:10:16;6.32;;;2.83;;
35917;SDS011;22011;59.912;30.300;2023-05-29T04:12:44;3.78;;;2.13;;
35917;SDS011;22011;59.912;30.300;2023-05-29T04:15:11;8.65;;;2.50;;
35917;SDS011;22011;59.912;30.300;2023-05-29T04:17:38;5.10;;;2.83;;
35917;SDS011;22011;59.912;30.300;2023-05-29T04:20:07;9.77;;;2.70;;
35917;SDS011;22011;59.912;30.300;2023-05-29T04:22:36;8.50;;;2.88;;
35917;SDS011;22011;59.912;30.300;2023-05-29T04:25:04;6.38;;;2.75;;
35917;SDS011;22011;59.912;30.300;2023-05-29T04:27:33;6.28;;;2.90;;
35917;SDS011;22011;59.912;30.300;2023-05-29T04:30:05;14.70;;;3.40;;
35917;SDS011;22011;59.912;30.300;2023-05-29T04:32:42;5.95;;;2.28;;
35917;SDS011;22011;59.912;30.300;2023-05-29T04:35:10;8.10;;;2.65;;
35917;SDS011;22011;59.912;30.300;2023-05-29T04:37:42;10.95;;;3.03;;
35917;SDS011;22011;59.912;30.300;2023-05-29T04:40:11;7.88;;;2.60;;
35917;SDS011;22011;59.912;30.300;2023-05-29T04:42:44;6.18;;;2.85;;
35917;SDS011;22011;59.912;30.300;2023-05-29T04:45:13;8.60;;;3.15;;
35917;SDS011;22011;59.912;30.300;2023-05-29T04:47:42;12.90;;;3.20;;
35917;SDS011;22011;59.912;30.300;2023-05-29T04:50:11;7.00;;;2.85;;
35917;SDS011;22011;59.912;30.300;2023-05-29T04:52:42;5.93;;;2.90;;
35917;SDS011;22011;59.912;30.300;2023-05-29T04:55:10;5.57;;;2.38;;
35917;SDS011;22011;59.912;30.300;2023-05-29T04:57:38;7.63;;;2.95;;
35917;SDS011;22011;59.912;30.300;2023-05-29T05:00:10;9.25;;;2.80;;
35917;SDS011;22011;59.912;30.300;2023-05-29T05:02:41;10.75;;;3.00;;
35917;SDS011;22011;59.912;30.300;2023-05-29T05:05:09;6.45;;;2.60;;
35917;SDS011;22011;59.912;30.300;2023-05-29T05:07:37;7.68;;;3.50;;
35917;SDS011;22011;59.912;30.300;2023-05-29T05:10:06;7.85;;;3.05;;
35917;SDS011;22011;59.912;30.300;2023-05-29T05:12:35;6.97;;;2.85;;
35917;SDS011;22011;59.912;30.300;2023-05-29T05:15:03;6.68;;;2.72;;
35917;SDS011;22011;59.912;30.300;2023-05-29T05:20:01;6.78;;;3.10;;
35917;SDS011;22011;59.912;30.300;2023-05-29T05:22:32;7.10;;;2.65;;
35917;SDS011;22011;59.912;30.300;2023-05-29T05:25:00;11.60;;;2.95;;
35917;SDS011;22011;59.912;30.300;2023-05-29T05:27:27;34.83;;;4.78;;
35917;SDS011;22011;59.912;30.300;2023-05-29T05:29:55;7.25;;;2.60;;
35917;SDS011;22011;59.912;30.300;2023-05-29T05:32:23;6.60;;;2.72;;
35917;SDS011;22011;59.912;30.300;2023-05-29T05:35:00;6.68;;;2.90;;
35917;SDS011;22011;59.912;30.300;2023-05-29T05:39:56;6.50;;;2.70;;
35917;SDS011;22011;59.912;30.300;2023-05-29T05:42:26;6.37;;;2.93;;
35917;SDS011;22011;59.912;30.300;2023-05-29T05:45:00;6.70;;;3.38;;
35917;SDS011;22011;59.912;30.300;2023-05-29T05:47:28;7.43;;;2.70;;
35917;SDS011;22011;59.912;30.300;2023-05-29T05:49:57;4.75;;;2.95;;
35917;SDS011;22011;59.912;30.300;2023-05-29T05:52:27;9.13;;;3.30;;
35917;SDS011;22011;59.912;30.300;2023-05-29T05:54:57;7.45;;;2.80;;
35917;SDS011;22011;59.912;30.300;2023-05-29T05:57:25;9.02;;;2.85;;
35917;SDS011;22011;59.912;30.300;2023-05-29T05:59:53;6.93;;;2.92;;
35917;SDS011;22011;59.912;30.300;2023-05-29T06:02:22;8.18;;;2.92;;
35917;SDS011;22011;59.912;30.300;2023-05-29T06:04:50;6.35;;;2.80;;
35917;SDS011;22011;59.912;30.300;2023-05-29T06:07:18;6.43;;;2.83;;
35917;SDS011;22011;59.912;30.300;2023-05-29T06:09:47;6.20;;;3.03;;
35917;SDS011;22011;59.912;30.300;2023-05-29T06:12:15;13.05;;;3.53;;
35917;SDS011;22011;59.912;30.300;2023-05-29T06:14:54;5.53;;;2.80;;
35917;SDS011;22011;59.912;30.300;2023-05-29T06:17:22;7.40;;;2.88;;
35917;SDS011;22011;59.912;30.300;2023-05-29T06:19:50;8.02;;;2.63;;
35917;SDS011;22011;59.912;30.300;2023-05-29T06:22:18;7.65;;;3.20;;
35917;SDS011;22011;59.912;30.300;2023-05-29T06:24:47;7.63;;;2.85;;
35917;SDS011;22011;59.912;30.300;2023-05-29T06:27:15;6.47;;;2.97;;
35917;SDS011;22011;59.912;30.300;2023-05-29T06:29:43;5.43;;;2.45;;
35917;SDS011;22011;59.912;30.300;2023-05-29T06:32:11;6.95;;;3.08;;
35917;SDS011;22011;59.912;30.300;2023-05-29T06:34:38;10.23;;;2.78;;
35917;SDS011;22011;59.912;30.300;2023-05-29T06:37:06;8.43;;;3.08;;
35917;SDS011;22011;59.912;30.300;2023-05-29T06:39:33;8.95;;;3.10;;
35917;SDS011;22011;59.912;30.300;2023-05-29T06:42:02;12.18;;;3.08;;
35917;SDS011;22011;59.912;30.300;2023-05-29T06:44:38;5.82;;;3.03;;
35917;SDS011;22011;59.912;30.300;2023-05-29T06:47:07;4.50;;;2.67;;
35917;SDS011;22011;59.912;30.300;2023-05-29T06:49:35;7.75;;;3.28;;
35917;SDS011;22011;59.912;30.300;2023-05-29T06:52:03;6.18;;;2.53;;
35917;SDS011;22011;59.912;30.300;2023-05-29T06:54:56;6.93;;;2.60;;
35917;SDS011;22011;59.912;30.300;2023-05-29T06:57:26;5.38;;;2.97;;
35917;SDS011;22011;59.912;30.300;2023-05-29T06:59:54;10.05;;;2.55;;
35917;SDS011;22011;59.912;30.300;2023-05-29T07:02:22;5.95;;;2.90;;
35917;SDS011;22011;59.912;30.300;2023-05-29T07:04:54;7.88;;;2.35;;
35917;SDS011;22011;59.912;30.300;2023-05-29T07:07:22;5.70;;;2.75;;
35917;SDS011;22011;59.912;30.300;2023-05-29T07:09:49;4.85;;;2.80;;
35917;SDS011;22011;59.912;30.300;2023-05-29T07:12:16;5.38;;;2.65;;
35917;SDS011;22011;59.912;30.300;2023-05-29T07:14:46;5.80;;;2.55;;
35917;SDS011;22011;59.912;30.300;2023-05-29T07:17:14;9.73;;;2.80;;
35917;SDS011;22011;59.912;30.300;2023-05-29T07:19:42;6.15;;;2.40;;
35917;SDS011;22011;59.912;30.300;2023-05-29T07:22:10;8.10;;;2.42;;
35917;SDS011;22011;59.912;30.300;2023-05-29T07:24:37;4.72;;;2.28;;
35917;SDS011;22011;59.912;30.300;2023-05-29T07:27:05;6.05;;;2.83;;
35917;SDS011;22011;59.912;30.300;2023-05-29T07:29:34;8.45;;;3.20;;
35917;SDS011;22011;59.912;30.300;2023-05-29T07:32:03;6.40;;;2.60;;
35917;SDS011;22011;59.912;30.300;2023-05-29T07:34:31;12.77;;;3.13;;
35917;SDS011;22011;59.912;30.300;2023-05-29T07:37:00;10.13;;;3.40;;
35917;SDS011;22011;59.912;30.300;2023-05-29T07:39:30;5.65;;;2.67;;
35917;SDS011;22011;59.912;30.300;2023-05-29T07:42:02;8.38;;;2.88;;
35917;SDS011;22011;59.912;30.300;2023-05-29T07:44:31;11.93;;;2.92;;
35917;SDS011;22011;59.912;30.300;2023-05-29T07:46:59;6.22;;;2.65;;
35917;SDS011;22011;59.912;30.300;2023-05-29T07:49:41;4.70;;;2.65;;
35917;SDS011;22011;59.912;30.300;2023-05-29T07:52:09;10.68;;;3.10;;
35917;SDS011;22011;59.912;30.300;2023-05-29T07:54:37;6.68;;;2.83;;
35917;SDS011;22011;59.912;30.300;2023-05-29T07:57:07;7.15;;;2.50;;
35917;SDS011;22011;59.912;30.300;2023-05-29T07:59:37;6.78;;;3.33;;
35917;SDS011;22011;59.912;30.300;2023-05-29T08:02:09;9.00;;;2.88;;
35917;SDS011;22011;59.912;30.300;2023-05-29T08:04:55;6.82;;;2.90;;
35917;SDS011;22011;59.912;30.300;2023-05-29T08:07:24;14.40;;;3.22;;
35917;SDS011;22011;59.912;30.300;2023-05-29T08:09:52;4.55;;;2.40;;
35917;SDS011;22011;59.912;30.300;2023-05-29T08:12:20;7.65;;;2.83;;
35917;SDS011;22011;59.912;30.300;2023-05-29T08:14:49;4.80;;;2.60;;
35917;SDS011;22011;59.912;30.300;2023-05-29T08:17:17;5.13;;;2.45;;
35917;SDS011;22011;59.912;30.300;2023-05-29T08:19:44;9.02;;;2.70;;
35917;SDS011;22011;59.912;30.300;2023-05-29T08:22:13;5.68;;;2.28;;
35917;SDS011;22011;59.912;30.300;2023-05-29T08:24:41;7.15;;;2.60;;
35917;SDS011;22011;59.912;30.300;2023-05-29T08:27:09;4.93;;;2.53;;
35917;SDS011;22011;59.912;30.300;2023-05-29T08:29:36;6.13;;;1.73;;
35917;SDS011;22011;59.912;30.300;2023-05-29T08:32:04;13.98;;;2.30;;
35917;SDS011;22011;59.912;30.300;2023-05-29T08:34:32;8.02;;;2.10;;
35917;SDS011;22011;59.912;30.300;2023-05-29T08:37:00;4.72;;;1.77;;
35917;SDS011;22011;59.912;30.300;2023-05-29T08:39:28;4.80;;;2.47;;
35917;SDS011;22011;59.912;30.300;2023-05-29T08:41:58;4.47;;;1.90;;
35917;SDS011;22011;59.912;30.300;2023-05-29T08:44:29;4.82;;;2.15;;
35917;SDS011;22011;59.912;30.300;2023-05-29T08:46:59;10.70;;;2.10;;
35917;SDS011;22011;59.912;30.300;2023-05-29T08:49:29;5.75;;;2.22;;
35917;SDS011;22011;59.912;30.300;2023-05-29T08:52:09;3.05;;;1.65;;
35917;SDS011;22011;59.912;30.300;2023-05-29T08:54:40;2.58;;;1.88;;
35917;SDS011;22011;59.912;30.300;2023-05-29T08:57:08;4.72;;;2.03;;
35917;SDS011;22011;59.912;30.300;2023-05-29T08:59:40;5.18;;;1.75;;
35917;SDS011;22011;59.912;30.300;2023-05-29T09:02:09;7.65;;;2.13;;
35917;SDS011;22011;59.912;30.300;2023-05-29T09:04:38;5.72;;;1.80;;
35917;SDS011;22011;59.912;30.300;2023-05-29T09:07:11;2.55;;;1.50;;
35917;SDS011;22011;59.912;30.300;2023-05-29T09:09:41;2.78;;;1.73;;
35917;SDS011;22011;59.912;30.300;2023-05-29T09:12:09;8.43;;;2.03;;
35917;SDS011;22011;59.912;30.300;2023-05-29T09:14:37;7.72;;;1.42;;
35917;SDS011;22011;59.912;30.300;2023-05-29T09:17:06;5.03;;;1.67;;
35917;SDS011;22011;59.912;30.300;2023-05-29T09:19:35;3.25;;;1.73;;
35917;SDS011;22011;59.912;30.300;2023-05-29T09:22:05;2.33;;;1.52;;
35917;SDS011;22011;59.912;30.300;2023-05-29T09:24:33;10.57;;;2.00;;
35917;SDS011;22011;59.912;30.300;2023-05-29T09:27:03;4.60;;;1.70;;
35917;SDS011;22011;59.912;30.300;2023-05-29T09:33:15;4.07;;;1.17;;
35917;SDS011;22011;59.912;30.300;2023-05-29T09:35:43;1.27;;;1.05;;
35917;SDS011;22011;59.912;30.300;2023-05-29T09:38:12;1.45;;;1.00;;
35917;SDS011;22011;59.912;30.300;2023-05-29T09:40:41;9.30;;;1.30;;
35917;SDS011;22011;59.912;30.300;2023-05-29T09:43:13;4.78;;;0.85;;
35917;SDS011;22011;59.912;30.300;2023-05-29T09:45:43;5.53;;;1.38;;
35917;SDS011;22011;59.912;30.300;2023-05-29T09:48:12;2.50;;;1.10;;
35917;SDS011;22011;59.912;30.300;2023-05-29T09:50:40;6.35;;;1.00;;
35917;SDS011;22011;59.912;30.300;2023-05-29T09:53:16;1.58;;;0.90;;
35917;SDS011;22011;59.912;30.300;2023-05-29T09:55:46;1.48;;;0.75;;
35917;SDS011;22011;59.912;30.300;2023-05-29T09:58:15;1.35;;;0.80;;
35917;SDS011;22011;59.912;30.300;2023-05-29T10:00:45;2.05;;;0.80;;
35917;SDS011;22011;59.912;30.300;2023-05-29T10:03:14;3.00;;;0.90;;
35917;SDS011;22011;59.912;30.300;2023-05-29T10:05:42;6.25;;;1.00;;
35917;SDS011;22011;59.912;30.300;2023-05-29T10:08:11;2.83;;;0.75;;
35917;SDS011;22011;59.912;30.300;2023-05-29T10:10:40;2.53;;;0.73;;
35917;SDS011;22011;59.912;30.300;2023-05-29T10:13:13;5.45;;;0.90;;
35917;SDS011;22011;59.912;30.300;2023-05-29T10:18:13;1.83;;;0.73;;
35917;SDS011;22011;59.912;30.300;2023-05-29T10:20:47;6.07;;;1.00;;
35917;SDS011;22011;59.912;30.300;2023-05-29T10:23:18;8.38;;;2.17;;
35917;SDS011;22011;59.912;30.300;2023-05-29T10:25:49;2.00;;;0.70;;
35917;SDS011;22011;59.912;30.300;2023-05-29T10:30:49;2.78;;;0.88;;
35917;SDS011;22011;59.912;30.300;2023-05-29T10:33:26;2.78;;;0.60;;
35917;SDS011;22011;59.912;30.300;2023-05-29T10:36:05;1.70;;;0.98;;
35917;SDS011;22011;59.912;30.300;2023-05-29T10:38:40;1.70;;;0.90;;
35917;SDS011;22011;59.912;30.300;2023-05-29T10:41:30;2.72;;;0.80;;
35917;SDS011;22011;59.912;30.300;2023-05-29T10:47:10;6.90;;;0.90;;
35917;SDS011;22011;59.912;30.300;2023-05-29T10:49:38;2.42;;;0.85;;
35917;SDS011;22011;59.912;30.300;2023-05-29T10:52:06;5.05;;;0.80;;
35917;SDS011;22011;59.912;30.300;2023-05-29T10:54:41;1.70;;;0.88;;
35917;SDS011;22011;59.912;30.300;2023-05-29T10:57:20;2.90;;;1.10;;
35917;SDS011;22011;59.912;30.300;2023-05-29T10:59:57;4.70;;;1.00;;
35917;SDS011;22011;59.912;30.300;2023-05-29T11:02:37;3.28;;;1.13;;
35917;SDS011;22011;59.912;30.300;2023-05-29T11:05:22;2.33;;;1.60;;
35917;SDS011;22011;59.912;30.300;2023-05-29T11:07:57;6.20;;;1.45;;
35917;SDS011;22011;59.912;30.300;2023-05-29T11:10:41;1.23;;;0.90;;
35917;SDS011;22011;59.912;30.300;2023-05-29T11:13:24;1.75;;;0.93;;
35917;SDS011;22011;59.912;30.300;2023-05-29T11:16:05;2.88;;;0.93;;
35917;SDS011;22011;59.912;30.300;2023-05-29T11:18:41;2.97;;;1.00;;
35917;SDS011;22011;59.912;30.300;2023-05-29T11:21:22;2.15;;;0.90;;
35917;SDS011;22011;59.912;30.300;2023-05-29T11:23:57;2.00;;;1.20;;
35917;SDS011;22011;59.912;30.300;2023-05-29T11:26:26;7.45;;;1.40;;
35917;SDS011;22011;59.912;30.300;2023-05-29T11:28:56;0.63;;;0.50;;
35917;SDS011;22011;59.912;30.300;2023-05-29T11:31:25;6.07;;;0.57;;
35917;SDS011;22011;59.912;30.300;2023-05-29T11:33:59;1.15;;;0.70;;
35917;SDS011;22011;59.912;30.300;2023-05-29T11:36:30;2.30;;;0.60;;
35917;SDS011;22011;59.912;30.300;2023-05-29T11:38:59;1.13;;;0.50;;
35917;SDS011;22011;59.912;30.300;2023-05-29T11:41:27;1.33;;;0.55;;
35917;SDS011;22011;59.912;30.300;2023-05-29T11:43:55;2.03;;;0.30;;
35917;SDS011;22011;59.912;30.300;2023-05-29T11:46:24;4.07;;;0.60;;
35917;SDS011;22011;59.912;30.300;2023-05-29T11:48:54;2.35;;;0.98;;
35917;SDS011;22011;59.912;30.300;2023-05-29T11:51:23;3.38;;;0.95;;
35917;SDS011;22011;59.912;30.300;2023-05-29T11:53:50;0.95;;;0.50;;
35917;SDS011;22011;59.912;30.300;2023-05-29T11:56:23;1.02;;;0.38;;
35917;SDS011;22011;59.912;30.300;2023-05-29T11:58:52;1.38;;;0.45;;
35917;SDS011;22011;59.912;30.300;2023-05-29T12:01:22;5.07;;;0.90;;
35917;SDS011;22011;59.912;30.300;2023-05-29T12:03:51;2.85;;;0.50;;
35917;SDS011;22011;59.912;30.300;2023-05-29T12:06:31;2.95;;;0.45;;
35917;SDS011;22011;59.912;30.300;2023-05-29T12:09:00;1.73;;;0.57;;
35917;SDS011;22011;59.912;30.300;2023-05-29T12:11:29;3.10;;;0.60;;
35917;SDS011;22011;59.912;30.300;2023-05-29T12:13:57;4.35;;;0.60;;
35917;SDS011;22011;59.912;30.300;2023-05-29T12:16:25;1.25;;;0.40;;
35917;SDS011;22011;59.912;30.300;2023-05-29T12:18:54;7.90;;;0.50;;
35917;SDS011;22011;59.912;30.300;2023-05-29T12:21:22;1.25;;;0.40;;
35917;SDS011;22011;59.912;30.300;2023-05-29T12:23:52;5.28;;;0.70;;
35917;SDS011;22011;59.912;30.300;2023-05-29T12:26:21;1.10;;;0.43;;
35917;SDS011;22011;59.912;30.300;2023-05-29T12:28:51;2.03;;;0.50;;
35917;SDS011;22011;59.912;30.300;2023-05-29T12:31:28;1.75;;;0.57;;
35917;SDS011;22011;59.912;30.300;2023-05-29T12:34:00;2.97;;;0.60;;
35917;SDS011;22011;59.912;30.300;2023-05-29T12:36:28;2.35;;;0.55;;
35917;SDS011;22011;59.912;30.300;2023-05-29T12:38:58;0.93;;;0.40;;
35917;SDS011;22011;59.912;30.300;2023-05-29T12:41:26;4.57;;;1.00;;
35917;SDS011;22011;59.912;30.300;2023-05-29T12:43:56;1.80;;;0.50;;
35917;SDS011;22011;59.912;30.300;2023-05-29T12:46:24;6.65;;;0.75;;
35917;SDS011;22011;59.912;30.300;2023-05-29T12:48:52;2.70;;;0.52;;
35917;SDS011;22011;59.912;30.300;2023-05-29T12:51:24;2.67;;;0.50;;
35917;SDS011;22011;59.912;30.300;2023-05-29T12:53:52;2.78;;;1.00;;
35917;SDS011;22011;59.912;30.300;2023-05-29T12:56:22;5.95;;;1.15;;
35917;SDS011;22011;59.912;30.300;2023-05-29T12:58:52;3.50;;;0.77;;
35917;SDS011;22011;59.912;30.300;2023-05-29T13:01:20;2.65;;;0.60;;
35917;SDS011;22011;59.912;30.300;2023-05-29T13:03:48;2.50;;;0.50;;
35917;SDS011;22011;59.912;30.300;2023-05-29T13:06:15;0.90;;;0.55;;
35917;SDS011;22011;59.912;30.300;2023-05-29T13:08:43;2.17;;;0.50;;
35917;SDS011;22011;59.912;30.300;2023-05-29T13:11:10;4.95;;;0.63;;
35917;SDS011;22011;59.912;30.300;2023-05-29T13:13:39;3.72;;;1.25;;
35917;SDS011;22011;59.912;30.300;2023-05-29T13:16:07;1.85;;;0.65;;
35917;SDS011;22011;59.912;30.300;2023-05-29T13:18:35;4.82;;;1.05;;
35917;SDS011;22011;59.912;30.300;2023-05-29T13:21:02;3.35;;;0.80;;
35917;SDS011;22011;59.912;30.300;2023-05-29T13:23:30;5.85;;;0.95;;
35917;SDS011;22011;59.912;30.300;2023-05-29T13:26:00;2.10;;;0.70;;
35917;SDS011;22011;59.912;30.300;2023-05-29T13:28:28;5.32;;;0.55;;
35917;SDS011;22011;59.912;30.300;2023-05-29T13:30:57;5.18;;;1.05;;
35917;SDS011;22011;59.912;30.300;2023-05-29T13:33:25;2.13;;;0.55;;
35917;SDS011;22011;59.912;30.300;2023-05-29T13:35:52;3.22;;;0.70;;
35917;SDS011;22011;59.912;30.300;2023-05-29T13:38:20;7.47;;;0.70;;
35917;SDS011;22011;59.912;30.300;2023-05-29T13:40:47;3.92;;;1.08;;
35917;SDS011;22011;59.912;30.300;2023-05-29T13:43:15;1.83;;;0.55;;
35917;SDS011;22011;59.912;30.300;2023-05-29T13:45:43;2.38;;;1.25;;
35917;SDS011;22011;59.912;30.300;2023-05-29T13:48:12;1.38;;;0.57;;
35917;SDS011;22011;59.912;30.300;2023-05-29T13:50:39;2.15;;;0.60;;
35917;SDS011;22011;59.912;30.300;2023-05-29T13:53:07;1.85;;;0.70;;
35917;SDS011;22011;59.912;30.300;2023-05-29T13:55:34;0.98;;;0.70;;
35917;SDS011;22011;59.912;30.300;2023-05-29T13:58:02;3.67;;;0.55;;
35917;SDS011;22011;59.912;30.300;2023-05-29T14:00:30;6.25;;;0.90;;
35917;SDS011;22011;59.912;30.300;2023-05-29T14:02:57;3.22;;;0.50;;
35917;SDS011;22011;59.912;30.300;2023-05-29T14:05:26;4.80;;;0.68;;
35917;SDS011;22011;59.912;30.300;2023-05-29T14:07:54;4.75;;;0.60;;
35917;SDS011;22011;59.912;30.300;2023-05-29T14:10:21;1.90;;;0.40;;
35917;SDS011;22011;59.912;30.300;2023-05-29T14:12:49;1.95;;;0.50;;
35917;SDS011;22011;59.912;30.300;2023-05-29T14:15:17;0.75;;;0.63;;
35917;SDS011;22011;59.912;30.300;2023-05-29T14:17:44;4.00;;;0.57;;
35917;SDS011;22011;59.912;30.300;2023-05-29T14:20:12;6.97;;;0.70;;
35917;SDS011;22011;59.912;30.300;2023-05-29T14:22:41;0.80;;;0.50;;
35917;SDS011;22011;59.912;30.300;2023-05-29T14:25:09;7.38;;;0.60;;
35917;SDS011;22011;59.912;30.300;2023-05-29T14:27:36;3.03;;;0.90;;
35917;SDS011;22011;59.912;30.300;2023-05-29T14:30:04;0.60;;;0.40;;
35917;SDS011;22011;59.912;30.300;2023-05-29T14:32:33;1.40;;;0.52;;
35917;SDS011;22011;59.912;30.300;2023-05-29T14:35:00;1.20;;;0.50;;
35917;SDS011;22011;59.912;30.300;2023-05-29T14:37:28;0.75;;;0.40;;
35917;SDS011;22011;59.912;30.300;2023-05-29T14:39:57;1.23;;;0.45;;
35917;SDS011;22011;59.912;30.300;2023-05-29T14:42:25;1.52;;;0.50;;
35917;SDS011;22011;59.912;30.300;2023-05-29T14:44:53;2.88;;;0.88;;
35917;SDS011;22011;59.912;30.300;2023-05-29T14:47:20;4.50;;;0.60;;
35917;SDS011;22011;59.912;30.300;2023-05-29T14:49:48;2.30;;;0.80;;
35917;SDS011;22011;59.912;30.300;2023-05-29T14:52:15;2.65;;;0.57;;
35917;SDS011;22011;59.912;30.300;2023-05-29T14:54:43;0.93;;;0.60;;
35917;SDS011;22011;59.912;30.300;2023-05-29T14:57:12;1.38;;;0.70;;
35917;SDS011;22011;59.912;30.300;2023-05-29T14:59:40;1.05;;;0.38;;
35917;SDS011;22011;59.912;30.300;2023-05-29T15:02:07;0.82;;;0.45;;
35917;SDS011;22011;59.912;30.300;2023-05-29T15:04:35;0.90;;;0.50;;
35917;SDS011;22011;59.912;30.300;2023-05-29T15:07:03;3.35;;;0.70;;
35917;SDS011;22011;59.912;30.300;2023-05-29T15:09:32;0.95;;;0.40;;
35917;SDS011;22011;59.912;30.300;2023-05-29T15:11:59;4.03;;;0.57;;
35917;SDS011;22011;59.912;30.300;2023-05-29T15:14:30;1.75;;;0.47;;
35917;SDS011;22011;59.912;30.300;2023-05-29T15:16:57;0.85;;;0.40;;